Time;durP1;ratioP1;P1;durP2;ratioP2;P2;SDS_P1;SDS_P2;PMS_P1;PMS_P2;Temp;Humidity;BMP_temperature;BMP_pressure;BME280_temperature;BME280_humidity;BME280_pressure;Samples;Min_cycle;Max_cycle;Signal;HPM_P1;HPM_P2
2022/02/14 00:02:15;;;;;;;71.35;32.55;;;;;;;2.39;72.30;100762.41;5074309;28;20439;-52
2022/02/14 00:04:41;;;;;;;61.75;30.85;;;;;;;2.13;72.32;100762.75;5073988;28;20074;-51
2022/02/14 00:07:07;;;;;;;64.15;30.05;;;;;;;2.33;72.25;100757.66;5074127;28;20135;-48
2022/02/14 00:09:32;;;;;;;64.75;30.10;;;;;;;2.34;71.38;100759.31;5074181;28;20122;-47
2022/02/14 00:11:58;;;;;;;61.08;29.00;;;;;;;2.21;70.20;100756.00;5074263;28;20032;-46
2022/02/14 00:14:23;;;;;;;65.85;28.63;;;;;;;2.11;72.46;100753.28;5073932;28;20028;-47
2022/02/14 00:16:49;;;;;;;67.20;30.15;;;;;;;2.18;72.22;100746.59;5074297;28;20028;-48
2022/02/14 00:19:14;;;;;;;62.50;29.52;;;;;;;1.65;71.78;100759.59;5073990;28;20058;-50
2022/02/14 00:21:40;;;;;;;65.78;31.65;;;;;;;1.86;71.58;100752.63;5074022;28;20040;-49
2022/02/14 00:24:09;;;;;;;63.78;29.98;;;;;;;2.07;72.03;100749.25;5073714;28;20427;-48
2022/02/14 00:26:36;;;;;;;65.28;29.75;;;;;;;2.17;70.87;100747.56;5074099;28;20545;-48
2022/02/14 00:29:02;;;;;;;60.42;28.83;;;;;;;1.88;71.71;100753.34;5072782;28;20551;-49
2022/02/14 00:31:27;;;;;;;67.63;30.45;;;;;;;2.01;71.46;100753.22;5074138;28;20032;-48
2022/02/14 00:33:53;;;;;;;69.85;30.48;;;;;;;1.82;72.05;100750.41;5074013;28;20029;-48
2022/02/14 00:36:18;;;;;;;61.03;31.45;;;;;;;1.74;71.52;100748.38;5073674;28;20027;-48
2022/02/14 00:38:44;;;;;;;62.47;29.55;;;;;;;2.03;71.52;100747.84;5073837;28;20036;-48
2022/02/14 00:41:10;;;;;;;71.70;31.33;;;;;;;1.67;72.65;100742.75;5074179;28;20380;-48
2022/02/14 00:43:35;;;;;;;62.72;29.30;;;;;;;1.81;72.45;100753.97;5073604;28;20110;-49
2022/02/14 00:46:01;;;;;;;57.17;28.17;;;;;;;1.84;71.99;100743.22;5073611;28;20029;-51
2022/02/14 00:48:26;;;;;;;57.88;28.73;;;;;;;2.04;71.64;100739.84;5072843;28;20024;-50
2022/02/14 00:50:52;;;;;;;54.47;27.25;;;;;;;1.82;72.60;100737.28;5072785;28;20033;-49
2022/02/14 00:53:19;;;;;;;55.50;27.15;;;;;;;1.77;71.66;100727.13;5072715;28;20460;-48
2022/02/14 00:55:45;;;;;;;57.42;25.38;;;;;;;1.75;72.43;100734.28;5072930;28;20107;-48
2022/02/14 00:58:10;;;;;;;52.80;25.27;;;;;;;1.60;73.66;100725.88;5072138;28;20031;-50
2022/02/14 01:00:36;;;;;;;47.65;24.60;;;;;;;1.50;73.29;100723.09;5073243;28;20039;-49
2022/02/14 01:03:02;;;;;;;51.20;25.55;;;;;;;1.41;73.63;100726.47;5073030;28;20031;-51
2022/02/14 01:05:28;;;;;;;50.75;25.08;;;;;;;1.37;72.44;100722.41;5073259;28;20494;-49
2022/02/14 01:07:53;;;;;;;54.50;26.50;;;;;;;1.44;73.75;100718.34;5073051;28;20551;-50
2022/02/14 01:10:19;;;;;;;54.55;25.75;;;;;;;1.31;72.45;100723.75;5072531;28;20028;-50
2022/02/14 01:12:44;;;;;;;53.90;25.75;;;;;;;1.33;72.74;100720.97;5072693;28;20035;-50
2022/02/14 01:15:10;;;;;;;59.47;26.30;;;;;;;1.62;74.92;100708.22;5071598;28;20012;-49
2022/02/14 01:17:36;;;;;;;56.05;25.60;;;;;;;1.64;72.58;100706.28;5072609;28;20039;-50
2022/02/14 01:20:07;;;;;;;53.88;25.30;;;;;;;1.54;72.22;100703.56;5072329;28;20417;-49
2022/02/14 01:22:33;;;;;;;51.17;24.67;;;;;;;1.42;71.80;100701.91;5072591;28;20028;-37
2022/02/14 01:24:59;;;;;;;53.28;25.92;;;;;;;1.39;72.75;100698.69;5072456;28;20025;-37
2022/02/14 01:27:24;;;;;;;46.85;24.42;;;;;;;1.60;73.51;100696.16;5072495;28;20035;-37
2022/02/14 01:29:50;;;;;;;54.10;25.85;;;;;;;1.74;71.76;100694.09;5072789;28;20020;-37
2022/02/14 01:32:19;;;;;;;52.88;25.88;;;;;;;1.40;73.87;100689.88;5073104;28;20032;-38
2022/02/14 01:34:45;;;;;;;49.10;24.65;;;;;;;1.46;74.19;100692.81;5072867;28;20466;-38
2022/02/14 01:37:11;;;;;;;59.40;26.17;;;;;;;1.22;73.06;100695.59;5073073;28;20033;-38
2022/02/14 01:39:36;;;;;;;58.00;26.45;;;;;;;1.53;74.31;100696.63;5073052;28;20028;-38
2022/02/14 01:42:02;;;;;;;60.22;25.38;;;;;;;1.48;74.07;100695.34;5073153;28;20435;-38
2022/02/14 01:44:39;;;;;;;57.00;25.73;;;;;;;1.42;73.13;100686.16;5072574;28;20061;-38
2022/02/14 01:47:15;;;;;;;58.55;25.45;;;;;;;1.44;74.06;100684.25;5072534;28;20086;-38
2022/02/14 01:49:40;;;;;;;52.25;24.65;;;;;;;1.42;73.98;100675.66;5072494;28;20016;-38
2022/02/14 01:52:06;;;;;;;55.95;25.30;;;;;;;1.23;72.90;100670.22;5072460;28;20086;-36
2022/02/14 01:54:36;;;;;;;55.08;25.25;;;;;;;1.16;72.46;100678.56;5072644;28;20039;-38
2022/02/14 01:57:03;;;;;;;48.25;25.27;;;;;;;0.86;73.42;100673.91;5072261;28;20400;-36
2022/02/14 01:59:29;;;;;;;49.67;24.50;;;;;;;1.13;74.48;100672.72;5071944;28;20037;-37
2022/02/14 02:01:55;;;;;;;49.00;23.45;;;;;;;1.16;73.15;100670.69;5072122;28;20484;-37
2022/02/14 02:04:20;;;;;;;48.03;23.38;;;;;;;1.16;73.94;100670.69;5071754;28;20031;-36
2022/02/14 02:06:46;;;;;;;45.05;22.33;;;;;;;1.19;75.62;100674.03;5071831;28;20068;-37
2022/02/14 02:09:11;;;;;;;45.30;21.02;;;;;;;1.19;74.47;100655.69;5054065;28;20345;-37
2022/02/14 02:14:24;;;;;;;43.58;21.63;;;;;;;1.59;73.87;100663.84;5071760;28;20483;-37
2022/02/14 02:16:49;;;;;;;45.45;21.63;;;;;;;1.44;73.93;100665.06;5071405;28;20491;-37
2022/02/14 02:19:15;;;;;;;42.90;20.70;;;;;;;1.33;72.57;100666.75;5071681;28;20068;-37
2022/02/14 02:21:48;;;;;;;42.33;20.92;;;;;;;1.22;74.88;100658.03;5071717;28;20052;-37
2022/02/14 02:24:19;;;;;;;40.45;21.40;;;;;;;1.19;74.60;100656.50;5071558;28;20505;-38
2022/02/14 02:26:58;;;;;;;40.58;20.10;;;;;;;1.33;74.93;100664.13;5071491;28;20029;-36
2022/02/14 02:29:24;;;;;;;39.20;20.50;;;;;;;1.45;75.30;100664.94;5071649;28;20059;-37
2022/02/14 02:31:50;;;;;;;40.22;19.17;;;;;;;1.41;73.10;100655.66;5071328;28;20020;-36
2022/02/14 02:34:15;;;;;;;43.15;20.48;;;;;;;1.30;71.84;100664.38;5071400;28;20104;-37
2022/02/14 02:36:48;;;;;;;41.78;20.60;;;;;;;1.22;72.12;100665.91;5071350;28;20123;-38
2022/02/14 02:39:13;;;;;;;42.22;19.70;;;;;;;1.13;74.49;100667.47;5071428;28;20436;-37
2022/02/14 02:41:39;;;;;;;38.65;19.05;;;;;;;1.03;73.02;100663.88;5071198;28;20051;-37
2022/02/14 02:44:04;;;;;;;43.58;20.23;;;;;;;1.23;73.29;100659.72;5071208;28;20020;-38
2022/02/14 02:46:29;;;;;;;41.08;20.15;;;;;;;1.27;74.68;100663.75;5071311;28;20028;-37
2022/02/14 02:48:55;;;;;;;44.53;20.25;;;;;;;1.26;73.28;100664.75;5071276;28;20372;-38
2022/02/14 02:51:20;;;;;;;41.70;20.17;;;;;;;1.38;72.33;100665.56;5071173;28;20106;-38
2022/02/14 02:53:46;;;;;;;41.70;20.10;;;;;;;1.19;73.02;100658.28;5071022;28;20082;-38
2022/02/14 02:56:11;;;;;;;39.15;19.52;;;;;;;0.98;74.27;100669.50;5071077;28;20029;-38
2022/02/14 02:58:37;;;;;;;39.28;19.17;;;;;;;1.00;74.37;100664.16;5070981;28;20044;-38
2022/02/14 03:01:02;;;;;;;36.97;19.17;;;;;;;1.19;73.33;100669.63;5071083;28;20043;-38
2022/02/14 03:03:28;;;;;;;40.83;19.95;;;;;;;1.26;73.45;100662.94;5071116;28;20484;-38
2022/02/14 03:05:53;;;;;;;34.58;17.67;;;;;;;1.32;72.82;100656.38;5070634;28;20190;-38
2022/02/14 03:08:19;;;;;;;43.53;18.88;;;;;;;1.35;72.64;100662.22;5070679;28;20036;-37
2022/02/14 03:10:45;;;;;;;36.75;18.50;;;;;;;1.21;73.42;100653.75;5071196;28;20086;-37
2022/02/14 03:13:10;;;;;;;35.50;17.77;;;;;;;1.09;73.62;100651.16;5070957;28;20024;-37
2022/02/14 03:15:36;;;;;;;33.40;17.52;;;;;;;1.15;74.80;100642.78;5070852;28;20472;-38
2022/02/14 03:18:02;;;;;;;34.03;17.02;;;;;;;1.42;74.10;100640.75;5070895;28;20020;-38
2022/02/14 03:20:27;;;;;;;36.50;19.20;;;;;;;1.20;73.23;100639.81;5070470;28;20082;-37
2022/02/14 03:22:53;;;;;;;31.02;17.20;;;;;;;1.30;74.73;100646.00;5070773;28;20047;-38
2022/02/14 03:25:18;;;;;;;37.85;18.23;;;;;;;1.37;73.00;100646.34;5070953;28;20032;-38
2022/02/14 03:27:43;;;;;;;32.25;17.38;;;;;;;1.32;72.62;100644.09;5070851;28;20025;-38
2022/02/14 03:30:10;;;;;;;34.25;16.38;;;;;;;1.34;73.15;100649.22;5070911;28;20538;-37
2022/02/14 03:32:35;;;;;;;36.30;18.80;;;;;;;1.56;72.81;100637.81;5071139;28;20039;-38
2022/02/14 03:35:01;;;;;;;35.53;17.92;;;;;;;1.15;73.55;100644.59;5071053;28;20028;-38
2022/02/14 03:37:26;;;;;;;33.20;17.75;;;;;;;1.10;75.60;100644.94;5070556;28;20032;-38
2022/02/14 03:39:51;;;;;;;36.97;18.13;;;;;;;1.19;74.52;100646.00;5070738;28;20503;-38
2022/02/14 03:42:17;;;;;;;35.10;18.13;;;;;;;1.21;73.62;100643.28;5070924;28;20400;-38
2022/02/14 03:44:42;;;;;;;32.63;16.42;;;;;;;1.32;74.33;100640.63;5070968;28;20035;-39
2022/02/14 03:47:10;;;;;;;30.88;16.75;;;;;;;1.40;72.98;100646.09;5070732;28;20103;-39
2022/02/14 03:49:35;;;;;;;35.22;17.20;;;;;;;1.30;73.28;100643.38;5070483;28;20477;-37
2022/02/14 03:52:01;;;;;;;33.63;17.30;;;;;;;1.45;72.62;100640.50;5070695;28;20031;-37
2022/02/14 03:54:27;;;;;;;34.30;16.42;;;;;;;1.30;73.76;100639.94;5070522;28;20151;-37
2022/02/14 03:56:52;;;;;;;31.58;16.15;;;;;;;1.29;75.44;100635.63;5070366;28;20412;-37
2022/02/14 03:59:18;;;;;;;42.05;17.50;;;;;;;1.36;74.71;100639.44;5070761;28;20025;-37
2022/02/14 04:01:46;;;;;;;33.97;16.80;;;;;;;1.33;74.16;100630.03;5070748;28;20415;-37
2022/02/14 04:04:11;;;;;;;34.78;15.43;;;;;;;1.31;73.17;100639.81;5070646;28;20035;-37
2022/02/14 04:06:37;;;;;;;33.28;16.08;;;;;;;1.42;74.11;100628.44;5070351;28;20041;-37
2022/02/14 04:09:02;;;;;;;33.28;16.20;;;;;;;1.75;72.95;100634.56;5070583;28;20024;-37
2022/02/14 04:11:27;;;;;;;31.55;15.77;;;;;;;1.73;73.49;100631.22;5070433;28;20021;-37
2022/02/14 04:13:53;;;;;;;35.45;17.05;;;;;;;1.72;71.77;100624.31;5070299;28;20024;-37
2022/02/14 04:16:18;;;;;;;38.88;16.45;;;;;;;1.43;72.51;100621.41;5070223;28;20499;-37
2022/02/14 04:18:44;;;;;;;41.85;17.42;;;;;;;1.52;72.85;100621.53;5068801;28;20036;-37
2022/02/14 04:21:09;;;;;;;32.30;16.33;;;;;;;1.47;74.00;100617.59;5069783;28;20020;-36
2022/02/14 04:23:36;;;;;;;30.52;15.93;;;;;;;1.67;74.23;100614.19;5070630;28;20033;-37
2022/02/14 04:26:01;;;;;;;33.30;15.43;;;;;;;1.53;73.33;100615.31;5070167;28;20031;-37
2022/02/14 04:28:27;;;;;;;37.35;17.48;;;;;;;1.68;72.59;100615.03;5070612;28;20025;-37
2022/02/14 04:30:52;;;;;;;31.95;16.50;;;;;;;1.43;73.71;100617.00;5070589;28;20025;-37
2022/02/14 04:33:17;;;;;;;32.92;16.35;;;;;;;1.26;73.31;100620.97;5071789;28;20028;-37
2022/02/14 04:35:43;;;;;;;35.08;16.65;;;;;;;1.35;75.27;100619.41;5073684;28;20028;-37
2022/02/14 04:38:08;;;;;;;64.30;30.55;;;;;;;1.32;74.55;100630.97;5073645;28;20025;-37
2022/02/14 04:40:37;;;;;;;82.75;37.05;;;;;;;1.24;74.83;100622.03;5072912;28;20472;-37
2022/02/14 04:43:02;;;;;;;65.22;26.75;;;;;;;1.26;73.27;100628.03;5073298;28;20047;-38
2022/02/14 04:45:28;;;;;;;38.38;18.88;;;;;;;1.40;72.45;100614.63;5072767;28;20457;-38
2022/02/14 04:47:54;;;;;;;37.78;19.10;;;;;;;1.14;72.13;100614.91;5073650;28;20231;-38
2022/02/14 04:50:19;;;;;;;43.55;19.90;;;;;;;0.80;72.30;100613.25;5073528;28;20029;-36
2022/02/14 04:52:45;;;;;;;41.75;18.90;;;;;;;0.75;73.70;100616.25;5072242;28;20021;-37
2022/02/14 04:55:10;;;;;;;36.70;19.02;;;;;;;1.02;72.78;100618.50;5073464;28;20020;-39
2022/02/14 04:57:36;;;;;;;41.25;18.30;;;;;;;0.64;73.12;100624.91;5073548;28;20602;-38
2022/02/14 05:00:04;;;;;;;41.13;19.73;;;;;;;0.81;72.88;100625.41;5071487;28;20025;-38
2022/02/14 05:02:30;;;;;;;47.25;20.35;;;;;;;0.51;74.52;100632.03;5071694;28;20028;-38
2022/02/14 05:04:55;;;;;;;40.45;20.10;;;;;;;0.45;74.95;100625.50;5072678;28;20029;-38
2022/02/14 05:07:20;;;;;;;46.70;19.52;;;;;;;0.75;73.47;100622.31;5072125;28;20053;-38
2022/02/14 05:09:46;;;;;;;49.85;21.13;;;;;;;2.29;91.29;100628.34;5072504;28;20456;-37
2022/02/14 05:12:11;;;;;;;46.42;20.75;;;;;;;1.76;70.70;100626.56;5052511;28;20047;-38
2022/02/14 05:14:37;;;;;;;38.97;20.00;;;;;;;1.38;70.71;100632.28;5058325;28;20077;-37
2022/02/14 05:17:03;;;;;;;43.38;19.92;;;;;;;0.85;73.23;100630.28;5072104;28;20033;-36
2022/02/14 05:19:28;;;;;;;43.45;20.42;;;;;;;0.77;73.84;100641.38;5071659;28;20464;-37
2022/02/14 05:21:54;;;;;;;51.72;22.55;;;;;;;0.57;75.21;100640.28;5071688;28;20448;-37
2022/02/14 05:24:19;;;;;;;48.05;23.27;;;;;;;0.57;74.94;100639.44;5070458;28;20016;-37
2022/02/14 05:26:45;;;;;;;218.00;79.72;;;;;;;0.56;76.04;100637.78;5070310;28;20082;-37
2022/02/14 05:29:10;;;;;;;72.43;28.60;;;;;;;0.52;75.41;100636.34;5070950;28;20110;-37
2022/02/14 05:31:36;;;;;;;50.95;22.73;;;;;;;1.05;78.71;100654.09;5070421;28;20027;-37
2022/02/14 05:34:01;;;;;;;52.28;22.30;;;;;;;1.63;81.50;100648.69;5070896;28;20032;-38
2022/02/14 05:36:27;;;;;;;41.75;19.77;;;;;;;1.62;73.59;100645.22;5070936;28;20021;-38
2022/02/14 05:38:52;;;;;;;38.33;19.73;;;;;;;1.53;72.17;100641.53;5057044;28;20628;-38
2022/02/14 05:41:18;;;;;;;39.60;19.08;;;;;;;1.29;74.77;100654.81;5070843;28;20169;-37
2022/02/14 05:43:43;;;;;;;32.97;17.77;;;;;;;1.78;73.64;100647.44;5070905;28;20028;-37
2022/02/14 05:46:13;;;;;;;33.00;17.10;;;;;;;1.85;70.58;100646.00;5071441;28;20016;-38
2022/02/14 05:48:42;;;;;;;;;;;;;;;1.95;71.22;100652.16;5070382;28;20476;-37
2022/02/14 05:51:08;;;;;;;39.33;19.50;;;;;;;1.95;71.62;100646.91;5070288;28;19927;-37
2022/02/14 05:53:33;;;;;;;52.70;27.88;;;;;;;1.87;70.21;100651.13;5070172;28;20021;-38
2022/02/14 05:55:59;;;;;;;38.28;20.45;;;;;;;2.15;69.32;100654.91;5071122;28;20081;-38
2022/02/14 05:58:24;;;;;;;35.65;16.65;;;;;;;2.38;70.54;100637.28;5070396;28;20024;-37
2022/02/14 06:00:49;;;;;;;31.85;16.77;;;;;;;2.32;67.91;100643.88;5070838;28;20078;-38
2022/02/14 06:03:15;;;;;;;29.77;15.10;;;;;;;2.48;68.40;100650.47;5070865;28;20025;-38
2022/02/14 06:05:40;;;;;;;30.60;15.10;;;;;;;2.51;67.05;100653.66;5070973;28;20056;-38
2022/02/14 06:08:06;;;;;;;32.70;15.30;;;;;;;2.76;67.60;100643.72;5070757;28;20464;-37
2022/02/14 06:10:31;;;;;;;27.75;14.70;;;;;;;2.92;66.15;100651.13;5071046;28;20026;-39
2022/02/14 06:12:57;;;;;;;28.30;14.55;;;;;;;3.10;66.77;100648.69;5070917;28;20082;-37
2022/02/14 06:15:22;;;;;;;60.95;25.35;;;;;;;3.11;65.39;100648.56;5071006;28;20098;-38
2022/02/14 06:17:47;;;;;;;27.27;15.30;;;;;;;3.31;65.05;100651.25;5070836;28;20028;-38
2022/02/14 06:20:15;;;;;;;37.75;15.73;;;;;;;3.50;64.20;100648.69;5070738;28;20036;-38
2022/02/14 06:22:40;;;;;;;56.45;29.73;;;;;;;3.66;63.05;100649.94;5070538;28;20028;-37
2022/02/14 06:25:06;;;;;;;53.13;27.83;;;;;;;3.86;63.49;100654.25;5070829;28;20078;-38
2022/02/14 06:27:32;;;;;;;58.63;27.10;;;;;;;4.27;62.86;100659.41;5070770;28;20031;-38
2022/02/14 06:29:57;;;;;;;40.00;21.45;;;;;;;4.30;62.88;100645.91;5070535;28;20024;-38
2022/02/14 06:32:22;;;;;;;39.10;18.50;;;;;;;4.63;61.61;100651.72;5070698;28;20094;-39
2022/02/14 06:34:48;;;;;;;30.58;16.23;;;;;;;5.15;60.02;100651.25;5070724;28;20039;-38
2022/02/14 06:37:13;;;;;;;35.22;17.55;;;;;;;5.68;59.01;100643.44;5070585;28;20039;-39
2022/02/14 06:39:39;;;;;;;33.00;18.60;;;;;;;6.16;57.10;100648.53;5070186;28;20033;-37
2022/02/14 06:42:04;;;;;;;36.90;21.27;;;;;;;5.99;57.50;100640.44;5070741;28;20035;-39
2022/02/14 06:44:30;;;;;;;46.63;22.05;;;;;;;5.73;58.54;100643.00;5070388;28;20458;-38
2022/02/14 06:46:56;;;;;;;45.72;20.38;;;;;;;5.32;59.11;100647.00;5070278;28;20470;-38
2022/02/14 06:49:21;;;;;;;42.53;19.00;;;;;;;5.08;59.33;100650.97;5070300;28;20095;-38
2022/02/14 06:51:47;;;;;;;40.88;19.40;;;;;;;4.99;60.06;100649.22;5070326;28;20078;-39
2022/02/14 06:54:12;;;;;;;41.28;20.17;;;;;;;5.25;59.00;100647.59;5070106;28;20032;-38
2022/02/14 06:56:38;;;;;;;40.55;20.48;;;;;;;5.48;59.48;100647.16;5069398;28;20479;-38
2022/02/14 06:59:03;;;;;;;39.20;19.70;;;;;;;5.69;57.73;100636.31;5070158;28;20062;-38
2022/02/14 07:01:28;;;;;;;43.85;19.48;;;;;;;5.70;57.04;100639.81;5070582;28;20094;-38
2022/02/14 07:03:54;;;;;;;37.13;18.95;;;;;;;5.83;56.84;100635.81;5070615;28;20473;-38
2022/02/14 07:06:19;;;;;;;39.53;19.02;;;;;;;5.97;57.09;100637.13;5070446;28;20052;-38
2022/02/14 07:08:45;;;;;;;44.83;19.60;;;;;;;6.51;55.12;100639.72;5070422;28;20028;-37
2022/02/14 07:11:11;;;;;;;36.25;19.05;;;;;;;6.52;54.50;100649.28;5070297;28;20029;-52
2022/02/14 07:13:36;;;;;;;40.90;19.15;;;;;;;6.79;53.96;100642.19;5069987;28;20111;-50
2022/02/14 07:16:02;;;;;;;52.60;25.98;;;;;;;6.80;54.25;100643.84;5070150;28;20055;-49
2022/02/14 07:18:28;;;;;;;55.40;29.27;;;;;;;6.98;54.48;100636.66;5070100;28;20021;-49
2022/02/14 07:20:54;;;;;;;27.73;15.52;;;;;;;7.09;53.43;100637.38;5070475;28;20047;-49
2022/02/14 07:23:20;;;;;;;33.15;16.08;;;;;;;7.42;53.43;100638.31;5070490;28;20024;-52
2022/02/14 07:25:46;;;;;;;34.63;18.08;;;;;;;7.24;52.96;100633.97;5070076;28;20024;-51
2022/02/14 07:28:11;;;;;;;43.47;21.98;;;;;;;7.33;52.56;100623.38;5070413;28;20020;-48
2022/02/14 07:30:37;;;;;;;56.72;28.90;;;;;;;8.75;51.87;100643.53;5070164;28;20146;-50
2022/02/14 07:33:02;;;;;;;56.03;28.70;;;;;;;8.89;48.37;100644.66;5069948;28;20161;-51
2022/02/14 07:35:28;;;;;;;54.63;27.58;;;;;;;8.74;48.68;100641.91;5069865;28;20312;-50
2022/02/14 07:37:53;;;;;;;63.50;32.85;;;;;;;8.39;49.07;100636.75;5069896;28;20174;-49
2022/02/14 07:40:19;;;;;;;61.75;33.60;;;;;;;8.20;50.31;100631.78;5068074;28;20044;-51
2022/02/14 07:42:44;;;;;;;64.22;34.50;;;;;;;8.21;50.02;100636.94;5069673;28;20036;-51
2022/02/14 07:45:10;;;;;;;61.33;30.73;;;;;;;8.10;49.70;100642.56;5069691;28;20043;-51
2022/02/14 07:47:35;;;;;;;67.32;33.45;;;;;;;8.09;50.97;100632.13;5070235;28;20120;-49
2022/02/14 07:50:01;;;;;;;73.15;33.40;;;;;;;7.65;51.33;100633.22;5068517;28;20476;-51
2022/02/14 07:52:26;;;;;;;77.63;37.40;;;;;;;7.60;51.42;100628.44;5070107;28;20035;-49
2022/02/14 07:54:53;;;;;;;65.75;35.47;;;;;;;7.38;51.60;100629.03;5069920;28;20016;-51
2022/02/14 07:57:18;;;;;;;60.85;30.92;;;;;;;7.09;53.99;100624.97;5070059;28;20077;-50
2022/02/14 07:59:44;;;;;;;61.35;30.42;;;;;;;7.41;52.18;100631.38;5069971;28;20507;-49
2022/02/14 08:02:10;;;;;;;56.35;31.02;;;;;;;7.49;52.30;100628.75;5070027;28;20028;-49
2022/02/14 08:04:35;;;;;;;51.78;27.70;;;;;;;7.76;51.68;100624.97;5069947;28;20036;-49
2022/02/14 08:07:06;;;;;;;51.95;27.40;;;;;;;8.90;48.30;100623.25;5070812;28;20049;-48
2022/02/14 08:09:31;;;;;;;55.78;27.00;;;;;;;8.50;50.73;100627.66;5073625;28;20035;-49
2022/02/14 08:11:57;;;;;;;52.38;27.10;;;;;;;7.94;50.94;100618.69;5073891;28;20033;-48
2022/02/14 08:14:22;;;;;;;49.72;25.95;;;;;;;7.93;51.89;100620.53;5070646;28;20024;-49
2022/02/14 08:16:48;;;;;;;49.33;25.67;;;;;;;7.84;51.45;100621.50;5071051;28;20036;-49
2022/02/14 08:19:13;;;;;;;46.30;26.20;;;;;;;7.97;51.01;100615.72;5073711;28;20081;-51
2022/02/14 08:21:39;;;;;;;48.45;26.25;;;;;;;7.33;52.21;100608.34;5073363;28;20067;-52
2022/02/14 08:24:04;;;;;;;51.72;26.35;;;;;;;8.39;50.62;100620.03;5073384;28;20143;-51
2022/02/14 08:26:31;;;;;;;43.55;24.90;;;;;;;9.23;47.94;100601.06;5073050;28;20052;-52
2022/02/14 08:28:57;;;;;;;45.95;25.35;;;;;;;9.36;48.06;100617.25;5072860;28;20024;-49
2022/02/14 08:31:22;;;;;;;46.40;25.45;;;;;;;9.47;47.30;100608.06;5072715;28;20032;-51
2022/02/14 08:33:47;;;;;;;35.72;19.23;;;;;;;9.43;47.86;100612.09;5072655;28;20032;-49
2022/02/14 08:36:14;;;;;;;18.63;11.70;;;;;;;9.86;46.89;100604.47;5070699;28;20055;-49
2022/02/14 08:38:39;;;;;;;20.58;11.75;;;;;;;9.94;46.47;100601.78;5072456;28;20032;-52
2022/02/14 08:41:04;;;;;;;19.88;11.57;;;;;;;9.83;46.32;100602.19;5072332;28;20032;-50
2022/02/14 08:43:31;;;;;;;18.30;11.57;;;;;;;9.91;46.83;100600.28;5072095;28;20098;-48
2022/02/14 08:45:59;;;;;;;18.33;10.77;;;;;;;9.78;46.16;100600.88;5073034;28;20032;-51
2022/02/14 08:48:27;;;;;;;21.60;11.43;;;;;;;9.78;46.74;100600.88;5072800;28;20153;-48
2022/02/14 08:50:53;;;;;;;22.55;12.25;;;;;;;9.53;47.04;100602.88;5072981;28;20035;-50
2022/02/14 08:53:21;;;;;;;24.17;12.45;;;;;;;9.70;46.67;100602.78;5072853;28;20107;-48
2022/02/14 08:55:47;;;;;;;21.65;11.95;;;;;;;9.89;46.05;100602.28;5073073;28;20029;-50
2022/02/14 08:58:12;;;;;;;22.83;11.43;;;;;;;10.17;45.24;100593.78;5072653;28;20460;-49
2022/02/14 09:00:38;;;;;;;21.50;11.63;;;;;;;10.27;45.54;100601.50;5073218;28;20032;-48
2022/02/14 09:03:03;;;;;;;19.75;11.73;;;;;;;10.61;44.80;100611.66;5072353;28;20073;-48
2022/02/14 09:05:29;;;;;;;19.60;11.07;;;;;;;10.28;45.20;100597.81;5072804;28;20044;-49
2022/02/14 09:07:54;;;;;;;21.58;12.85;;;;;;;10.27;45.28;100610.28;5072854;28;20150;-49
2022/02/14 09:10:20;;;;;;;21.63;12.48;;;;;;;10.17;45.27;100599.91;5072826;28;20025;-48
2022/02/14 09:12:46;;;;;;;20.38;12.23;;;;;;;10.29;45.12;100610.13;5072678;28;20480;-48
2022/02/14 09:15:12;;;;;;;19.80;12.25;;;;;;;9.80;46.03;100598.03;5071547;28;20023;-48
2022/02/14 09:17:37;;;;;;;22.80;13.02;;;;;;;9.97;45.38;100606.72;5072206;28;20017;-49
2022/02/14 09:20:03;;;;;;;23.63;12.52;;;;;;;9.86;45.87;100600.00;5070119;28;20017;-51
2022/02/14 09:22:29;;;;;;;18.90;11.88;;;;;;;9.95;45.96;100601.56;5072362;28;20017;-50
2022/02/14 09:24:55;;;;;;;27.38;12.77;;;;;;;10.16;45.78;100600.09;5072157;28;20123;-50
2022/02/14 09:27:20;;;;;;;22.05;12.45;;;;;;;10.41;44.73;100595.38;5072219;28;20021;-51
2022/02/14 09:29:45;;;;;;;18.45;11.45;;;;;;;10.62;44.36;100607.16;5071922;28;20016;-50
2022/02/14 09:32:11;;;;;;;24.38;12.90;;;;;;;10.40;44.42;100601.72;5071163;28;20020;-48
2022/02/14 09:34:36;;;;;;;23.48;13.02;;;;;;;10.69;43.84;100598.25;5071617;28;20518;-49
2022/02/14 09:37:02;;;;;;;23.73;12.57;;;;;;;10.27;45.39;100604.16;5071424;28;20125;-51
2022/02/14 09:39:30;;;;;;;21.15;12.60;;;;;;;10.46;44.58;100598.34;5071382;28;20032;-48
2022/02/14 09:42:00;;;;;;;22.40;12.60;;;;;;;10.44;44.69;100600.34;5071124;28;20369;-49
2022/02/14 09:44:25;;;;;;;;;;;;;;;10.42;45.24;100597.06;5071465;28;20038;-51
2022/02/14 09:46:51;;;;;;;19.88;11.95;;;;;;;10.40;44.74;100590.28;5070948;28;19908;-50
2022/02/14 09:49:16;;;;;;;23.77;12.85;;;;;;;10.29;44.96;100591.50;5071281;28;20032;-48
2022/02/14 09:51:42;;;;;;;22.13;13.05;;;;;;;10.23;45.07;100587.72;5053251;28;20119;-52
2022/02/14 09:54:07;;;;;;;24.00;12.60;;;;;;;9.79;46.25;100581.28;5070898;28;20082;-49
2022/02/14 09:56:35;;;;;;;21.35;12.57;;;;;;;9.94;45.96;100578.66;5069791;28;20027;-51
2022/02/14 09:59:05;;;;;;;20.60;12.07;;;;;;;11.09;44.83;100584.66;5068810;28;20043;-52
2022/02/14 10:01:31;;;;;;;21.02;12.02;;;;;;;10.59;43.75;100579.09;5069104;28;20029;-48
2022/02/14 10:03:57;;;;;;;23.38;12.07;;;;;;;10.46;44.82;100581.56;5070031;28;20107;-52
2022/02/14 10:06:26;;;;;;;23.30;12.25;;;;;;;9.91;45.88;100572.88;5067930;28;20503;-49
2022/02/14 10:09:18;;;;;;;21.42;12.05;;;;;;;10.06;45.88;100573.75;5067579;28;20121;-49
2022/02/14 10:12:07;;;;;;;19.30;11.80;;;;;;;10.32;45.65;100556.59;5068723;28;20090;-50
2022/02/14 10:14:33;;;;;;;23.38;11.30;;;;;;;10.05;46.03;100553.50;5068657;28;20016;-49
2022/02/14 10:17:02;;;;;;;21.40;11.82;;;;;;;11.48;42.89;100544.31;5067503;28;20165;-51
2022/02/14 10:19:29;;;;;;;19.98;12.20;;;;;;;11.23;43.02;100546.50;5066280;28;20063;-51
2022/02/14 10:21:54;;;;;;;23.92;11.45;;;;;;;10.63;43.95;100548.41;5066765;28;20027;-51
2022/02/14 10:24:20;;;;;;;23.55;12.82;;;;;;;10.21;44.99;100544.53;5070582;28;20016;-50
2022/02/14 10:26:50;;;;;;;16.55;11.35;;;;;;;9.97;46.02;100534.94;5070518;28;20031;-50
2022/02/14 10:29:25;;;;;;;19.98;10.85;;;;;;;10.10;45.48;100539.63;5070895;28;20024;-48
2022/02/14 10:31:55;;;;;;;20.45;11.18;;;;;;;9.86;46.73;100524.72;5071139;28;20039;-48
2022/02/14 10:34:23;;;;;;;21.55;11.50;;;;;;;10.02;45.44;100518.44;5069511;28;20025;-51
2022/02/14 10:36:49;;;;;;;19.38;11.70;;;;;;;10.72;44.37;100525.22;5070777;28;20551;-51
2022/02/14 10:39:20;;;;;;;17.88;10.95;;;;;;;10.71;43.89;100519.03;5070724;28;20481;-50
2022/02/14 10:41:47;;;;;;;19.80;11.25;;;;;;;10.52;43.91;100509.78;5071210;28;20040;-49
2022/02/14 10:47:22;;;;;;;18.92;11.32;;;;;;;10.56;44.28;100499.59;5069646;28;20031;-38
2022/02/14 10:50:03;;;;;;;18.00;11.50;;;;;;;10.35;43.93;100497.66;5070810;28;20500;-37
2022/02/14 10:52:36;;;;;;;19.42;11.57;;;;;;;9.81;44.84;100489.91;5070546;28;20020;-38
2022/02/14 10:55:26;;;;;;;18.48;11.00;;;;;;;10.15;44.42;100490.22;5070584;28;20028;-38
2022/02/14 10:57:51;;;;;;;18.33;11.98;;;;;;;10.89;42.44;100477.88;5064133;28;20476;-39
2022/02/14 11:00:27;;;;;;;19.05;11.60;;;;;;;10.35;44.08;100468.41;5070737;28;20051;-38
2022/02/14 11:02:57;;;;;;;19.58;10.95;;;;;;;10.14;44.46;100461.94;5070845;28;20093;-38
2022/02/14 11:05:23;;;;;;;18.27;10.63;;;;;;;10.39;43.86;100460.88;5069167;28;20094;-38
2022/02/14 11:07:49;;;;;;;16.88;10.82;;;;;;;10.29;44.07;100467.28;5070659;28;20039;-38
2022/02/14 11:10:15;;;;;;;17.90;10.77;;;;;;;10.44;43.61;100461.16;5070673;28;20036;-38
2022/02/14 11:12:54;;;;;;;17.20;10.75;;;;;;;10.47;43.26;100455.47;5069390;28;20063;-38
2022/02/14 11:15:22;;;;;;;19.30;11.35;;;;;;;11.49;42.51;100457.16;5069634;28;20460;-38
2022/02/14 11:17:48;;;;;;;19.48;11.48;;;;;;;11.48;40.91;100456.34;5069966;28;20496;-39
2022/02/14 11:20:14;;;;;;;20.02;11.55;;;;;;;11.04;41.83;100429.88;5070441;28;20025;-38